createdAt,value
2019-01-16T00:02:59.804Z,100479.30
2019-01-16T00:06:21.659Z,100487.73
2019-01-16T00:09:34.870Z,100474.78
2019-01-16T00:13:13.155Z,100478.06
2019-01-16T00:16:36.883Z,100471.46
2019-01-16T00:19:58.530Z,100475.52
2019-01-16T00:23:18.502Z,100482.45
2019-01-16T00:26:40.407Z,100470.14
2019-01-16T00:30:18.374Z,100471.61
2019-01-16T00:33:44.277Z,100464.52
2019-01-16T00:37:14.270Z,100464.09
2019-01-16T00:40:26.497Z,100467.23
2019-01-16T00:43:41.543Z,100465.02
2019-01-16T00:47:03.213Z,100456.58
2019-01-16T00:50:25.001Z,100453.53
2019-01-16T00:53:48.023Z,100455.18
2019-01-16T00:57:26.069Z,100462.52
2019-01-16T01:00:48.017Z,100452.16
2019-01-16T01:04:09.824Z,100448.03
2019-01-16T01:07:24.212Z,100449.25
2019-01-16T01:10:47.194Z,100435.00
2019-01-16T01:14:06.116Z,100442.72
2019-01-16T01:17:28.790Z,100444.48
2019-01-16T01:20:50.462Z,100436.69
2019-01-16T01:24:09.902Z,100441.65
2019-01-16T01:27:32.815Z,100443.71
2019-01-16T01:30:53.970Z,100435.39
2019-01-16T01:34:15.899Z,100451.55
2019-01-16T01:37:54.245Z,100439.70
2019-01-16T01:41:20.534Z,100432.73
2019-01-16T01:44:46.566Z,100435.77
2019-01-16T01:48:12.759Z,100436.92
2019-01-16T01:51:29.514Z,100436.52
2019-01-16T01:54:42.139Z,100428.84
2019-01-16T01:58:00.253Z,100430.89
2019-01-16T02:01:29.705Z,100430.42
2019-01-16T02:04:51.039Z,100436.34
2019-01-16T02:08:13.345Z,100431.30
2019-01-16T02:11:35.325Z,100432.22
2019-01-16T02:15:01.190Z,100439.30
2019-01-16T02:18:14.317Z,100428.66
2019-01-16T02:21:43.336Z,100415.47
2019-01-16T02:25:04.903Z,100419.42
2019-01-16T02:28:21.947Z,100428.65
2019-01-16T02:31:54.030Z,100432.69
2019-01-16T02:35:15.750Z,100416.72
2019-01-16T02:38:53.941Z,100426.02
2019-01-16T02:42:17.340Z,100416.95
2019-01-16T02:45:39.128Z,100413.95
2019-01-16T02:49:14.391Z,100407.28
2019-01-16T02:52:40.082Z,100414.72
2019-01-16T02:56:02.909Z,100399.87
2019-01-16T02:59:18.499Z,100398.03
2019-01-16T03:02:40.226Z,100397.66
2019-01-16T03:05:57.326Z,100392.17
2019-01-16T03:09:29.249Z,100398.12
2019-01-16T03:12:46.304Z,100385.98
2019-01-16T03:16:27.308Z,100383.20
2019-01-16T03:19:49.745Z,100384.35
2019-01-16T03:23:11.765Z,100377.86
2019-01-16T03:26:33.447Z,100376.61
2019-01-16T03:30:02.438Z,100363.76
2019-01-16T03:33:23.946Z,100374.31
2019-01-16T03:36:49.158Z,100384.62
2019-01-16T03:40:15.223Z,100377.19
2019-01-16T03:43:28.321Z,100363.19
2019-01-16T03:46:40.075Z,100362.67
2019-01-16T03:49:55.063Z,100382.96
2019-01-16T03:53:17.406Z,100349.46
2019-01-16T03:56:46.179Z,100353.88
2019-01-16T04:00:06.990Z,100342.05
2019-01-16T04:03:25.387Z,100345.28
2019-01-16T04:07:00.648Z,100346.91
2019-01-16T04:10:30.724Z,100336.42
2019-01-16T04:13:47.029Z,100341.16
2019-01-16T04:17:11.723Z,100334.78
2019-01-16T04:20:24.851Z,100334.96
2019-01-16T04:23:43.188Z,100338.16
2019-01-16T04:27:11.947Z,100331.49
2019-01-16T04:30:31.563Z,100326.53
2019-01-16T04:33:53.331Z,100320.78
2019-01-16T04:37:11.959Z,100322.09
2019-01-16T04:40:35.901Z,100316.90
2019-01-16T04:43:51.327Z,100314.59
2019-01-16T04:47:32.731Z,100311.20
2019-01-16T04:50:55.722Z,100304.34
2019-01-16T04:54:31.146Z,100310.79
2019-01-16T04:57:54.075Z,100293.41
2019-01-16T05:01:28.373Z,100313.11
2019-01-16T05:04:50.634Z,100292.75
2019-01-16T05:08:25.433Z,100298.91
2019-01-16T05:11:47.045Z,100299.33
2019-01-16T05:15:15.793Z,100287.02
2019-01-16T05:18:37.567Z,100284.81
2019-01-16T05:22:00.715Z,100280.78
2019-01-16T05:25:29.939Z,100280.02
2019-01-16T05:28:58.886Z,100278.14
2019-01-16T05:32:20.438Z,100286.47
2019-01-16T05:35:43.335Z,100293.06
2019-01-16T05:39:06.351Z,100274.89
2019-01-16T05:42:35.400Z,100272.94
2019-01-16T05:45:50.394Z,100274.16
2019-01-16T05:49:13.281Z,100266.48
2019-01-16T05:52:51.409Z,100264.60
2019-01-16T05:56:13.431Z,100252.49
2019-01-16T05:59:35.001Z,100258.38
2019-01-16T06:03:16.404Z,100256.94
2019-01-16T06:06:37.413Z,100245.89
2019-01-16T06:10:01.618Z,100244.78
2019-01-16T06:13:36.623Z,100239.89
2019-01-16T06:16:51.201Z,100236.70
2019-01-16T06:20:23.377Z,100240.20
2019-01-16T06:23:45.307Z,100246.74
2019-01-16T06:27:14.238Z,100241.03
2019-01-16T06:30:36.271Z,100240.66
2019-01-16T06:33:58.137Z,100238.92
2019-01-16T06:37:21.024Z,100231.39
2019-01-16T06:40:43.859Z,100230.34
2019-01-16T06:44:15.895Z,100227.67
2019-01-16T06:47:45.860Z,100227.00
2019-01-16T06:51:01.352Z,100223.33
2019-01-16T06:54:24.830Z,100216.20
2019-01-16T06:57:46.842Z,100211.36
2019-01-16T07:00:58.771Z,100215.03
2019-01-16T07:04:17.823Z,100218.38
2019-01-16T07:07:39.940Z,100202.45
2019-01-16T07:11:01.912Z,100204.55
2019-01-16T07:14:13.696Z,100208.10
2019-01-16T07:17:35.669Z,100199.48
2019-01-16T07:20:56.209Z,100187.63
2019-01-16T07:24:19.914Z,100188.56
2019-01-16T07:27:40.694Z,100189.06
2019-01-16T07:30:58.227Z,100193.19
2019-01-16T07:34:18.203Z,100190.44
2019-01-16T07:37:44.230Z,100177.98
2019-01-16T07:40:57.371Z,100181.94
2019-01-16T07:44:18.891Z,100190.49
2019-01-16T07:47:32.549Z,100196.27
2019-01-16T07:51:01.366Z,100189.50
2019-01-16T07:54:33.364Z,100199.10
2019-01-16T07:57:59.222Z,100197.78
2019-01-16T08:01:22.299Z,100188.12
2019-01-16T08:04:44.474Z,100186.07
2019-01-16T08:08:10.297Z,100185.19
2019-01-16T08:11:24.905Z,100189.72
2019-01-16T08:14:46.342Z,100180.03
2019-01-16T08:18:12.487Z,100180.38
2019-01-16T08:21:34.093Z,100179.82
2019-01-16T08:24:51.518Z,100177.66
2019-01-16T08:28:15.607Z,100172.61
2019-01-16T08:31:56.915Z,100165.48
2019-01-16T08:35:22.577Z,100163.06
2019-01-16T08:38:40.764Z,100181.97
2019-01-16T08:42:03.474Z,100157.06
2019-01-16T08:45:37.328Z,100163.69
2019-01-16T08:49:00.149Z,100180.13
2019-01-16T08:52:38.562Z,100176.78
2019-01-16T08:56:16.559Z,100153.02
2019-01-16T08:59:38.722Z,100193.45
2019-01-16T09:02:52.082Z,100150.08
2019-01-16T09:06:14.988Z,100148.41
2019-01-16T09:09:40.647Z,100149.25
2019-01-16T09:13:02.199Z,100151.17
2019-01-16T09:16:19.938Z,100145.30
2019-01-16T09:19:36.730Z,100147.80
2019-01-16T09:23:05.829Z,100144.30
2019-01-16T09:26:31.626Z,100147.30
2019-01-16T09:29:44.768Z,100143.16
2019-01-16T09:33:13.702Z,100144.16
2019-01-16T09:36:30.991Z,100139.40
2019-01-16T09:40:09.153Z,100154.92
2019-01-16T09:43:30.626Z,100131.09
2019-01-16T09:46:44.648Z,100132.20
2019-01-16T09:50:07.503Z,100126.72
2019-01-16T09:53:39.771Z,100119.67
2019-01-16T09:56:55.996Z,100120.79
2019-01-16T10:00:37.598Z,100114.09
2019-01-16T10:04:04.698Z,100113.69
2019-01-16T10:07:45.872Z,100112.19
2019-01-16T10:11:17.433Z,100106.09
2019-01-16T10:14:43.237Z,100104.88
2019-01-16T10:18:10.556Z,100087.52
2019-01-16T10:21:36.132Z,100096.84
2019-01-16T10:24:52.896Z,100087.10
2019-01-16T10:28:09.921Z,100088.28
2019-01-16T10:31:39.111Z,100082.08
2019-01-16T10:35:05.460Z,100079.12
2019-01-16T10:38:46.555Z,100070.13
2019-01-16T10:42:08.156Z,100064.31
2019-01-16T10:45:31.551Z,100056.50
2019-01-16T10:48:49.897Z,100049.31
2019-01-16T10:52:31.144Z,100049.38
2019-01-16T10:55:59.644Z,100030.91
2019-01-16T10:59:37.485Z,100027.70
2019-01-16T11:02:59.075Z,100013.67
2019-01-16T11:06:17.443Z,100014.27
2019-01-16T11:09:48.801Z,100003.27
2019-01-16T11:13:10.828Z,99999.84
2019-01-16T11:16:32.563Z,100002.57
2019-01-16T11:19:54.388Z,99986.67
2019-01-16T11:23:17.169Z,99998.11
2019-01-16T11:26:43.255Z,99980.13
2019-01-16T11:30:09.004Z,99978.75
2019-01-16T11:33:35.826Z,99980.11
2019-01-16T11:37:09.453Z,99967.95
2019-01-16T11:40:32.559Z,99968.29
2019-01-16T11:43:54.426Z,99949.91
2019-01-16T11:47:17.569Z,99947.55
2019-01-16T11:50:31.959Z,99953.20
2019-01-16T11:53:53.845Z,99951.38
2019-01-16T11:57:15.825Z,99940.72
2019-01-16T12:00:31.424Z,99925.70
2019-01-16T12:04:00.377Z,99919.59
2019-01-16T12:07:13.620Z,99922.77
2019-01-16T12:10:48.917Z,99924.59
2019-01-16T12:14:10.691Z,99921.80
2019-01-16T12:17:39.104Z,99925.28
2019-01-16T12:21:00.768Z,99926.70
2019-01-16T12:24:25.405Z,99908.43
2019-01-16T12:27:48.419Z,99923.15
2019-01-16T12:31:13.052Z,99902.63
2019-01-16T12:34:35.986Z,99903.45
2019-01-16T12:38:17.301Z,99895.66
2019-01-16T12:41:47.944Z,99917.03
2019-01-16T12:45:09.806Z,99892.52
2019-01-16T12:48:39.051Z,99897.05
2019-01-16T12:51:50.667Z,99891.07
2019-01-16T12:55:12.909Z,99864.46
2019-01-16T12:58:30.566Z,99876.34
2019-01-16T13:01:59.706Z,99898.20
2019-01-16T13:05:20.655Z,99878.50
2019-01-16T13:08:46.992Z,99853.88
2019-01-16T13:12:08.875Z,99861.48
2019-01-16T13:15:30.491Z,99869.74
2019-01-16T13:18:58.533Z,99846.42
2019-01-16T13:22:12.004Z,99847.38
2019-01-16T13:25:39.843Z,99853.97
2019-01-16T13:29:01.965Z,99833.77
2019-01-16T13:32:18.776Z,99834.27
2019-01-16T13:35:40.680Z,99834.61
2019-01-16T13:39:02.764Z,99828.89
2019-01-16T13:42:14.329Z,99838.39
2019-01-16T13:45:40.197Z,99842.32
2019-01-16T13:49:01.998Z,99834.41
2019-01-16T13:52:34.997Z,99824.56
2019-01-16T13:55:56.653Z,99830.06
2019-01-16T13:59:23.680Z,99826.68
2019-01-16T14:02:46.561Z,99804.46
2019-01-16T14:06:03.230Z,99814.64
2019-01-16T14:09:33.615Z,99822.52
2019-01-16T14:12:55.267Z,99819.89
2019-01-16T14:16:20.238Z,99803.14
2019-01-16T14:19:48.275Z,99803.78
2019-01-16T14:23:09.728Z,99802.83
2019-01-16T14:26:32.365Z,99796.91
2019-01-16T14:29:54.076Z,99798.56
2019-01-16T14:33:15.713Z,99814.05
2019-01-16T14:36:38.845Z,99793.70
2019-01-16T14:40:01.747Z,99789.16
2019-01-16T14:43:31.022Z,99783.62
2019-01-16T14:46:45.189Z,99776.19
2019-01-16T14:49:56.445Z,99785.99
2019-01-16T14:53:19.291Z,99784.98
2019-01-16T14:56:41.308Z,99768.75
2019-01-16T15:00:04.327Z,99772.36
2019-01-16T15:03:27.294Z,99763.66
2019-01-16T15:06:50.705Z,99770.57
2019-01-16T15:10:11.755Z,99776.83
2019-01-16T15:13:23.727Z,99758.59
2019-01-16T15:16:58.497Z,99764.77
2019-01-16T15:20:19.588Z,99762.70
2019-01-16T15:23:41.937Z,99763.36
2019-01-16T15:27:08.120Z,99759.50
2019-01-16T15:30:40.229Z,99762.13
2019-01-16T15:34:02.229Z,99758.89
2019-01-16T15:37:24.527Z,99762.13
2019-01-16T15:40:48.378Z,99733.35
2019-01-16T15:44:17.371Z,99734.06
2019-01-16T15:47:39.961Z,99736.94
2019-01-16T15:51:12.352Z,99734.70
2019-01-16T15:54:27.403Z,99727.39
2019-01-16T15:57:38.578Z,99732.98
2019-01-16T16:01:02.249Z,99726.38
2019-01-16T16:04:21.918Z,99728.23
2019-01-16T16:07:51.186Z,99718.73
2019-01-16T16:11:05.502Z,99726.17
2019-01-16T16:14:41.118Z,99722.06
2019-01-16T16:18:02.926Z,99707.06
2019-01-16T16:21:32.177Z,99718.92
2019-01-16T16:25:03.231Z,99693.59
2019-01-16T16:28:38.213Z,99714.16
2019-01-16T16:32:01.634Z,99701.53
2019-01-16T16:35:36.878Z,99682.80
2019-01-16T16:39:06.092Z,99685.56
2019-01-16T16:42:26.761Z,99688.20
2019-01-16T16:45:40.346Z,99678.59
2019-01-16T16:49:06.220Z,99666.39
2019-01-16T16:52:31.763Z,99687.58
2019-01-16T16:55:47.029Z,99650.52
2019-01-16T16:59:11.638Z,99648.11
2019-01-16T17:02:46.916Z,99652.47
2019-01-16T17:06:09.824Z,99642.84
2019-01-16T17:09:32.743Z,99634.70
2019-01-16T17:12:58.604Z,99646.50
2019-01-16T17:16:17.775Z,99630.20
2019-01-16T17:19:39.604Z,99624.02
2019-01-16T17:23:02.470Z,99614.80
2019-01-16T17:26:24.546Z,99619.66
2019-01-16T17:29:46.253Z,99615.94
2019-01-16T17:33:06.575Z,99616.18
2019-01-16T17:36:26.920Z,99611.72
2019-01-16T17:39:49.759Z,99610.23
2019-01-16T17:43:11.653Z,99613.17
2019-01-16T17:46:40.754Z,99589.14
2019-01-16T17:50:02.172Z,99582.22
2019-01-16T17:53:28.220Z,99589.31
2019-01-16T17:56:56.346Z,99583.13
2019-01-16T18:00:18.108Z,99576.03
2019-01-16T18:03:45.319Z,99562.25
2019-01-16T18:07:02.350Z,99555.35
2019-01-16T18:10:26.607Z,99558.73
2019-01-16T18:13:45.902Z,99548.42
2019-01-16T18:17:11.703Z,99545.89
2019-01-16T18:20:41.560Z,99543.16
2019-01-16T18:24:02.926Z,99544.58
2019-01-16T18:27:24.499Z,99541.27
2019-01-16T18:30:50.424Z,99545.38
2019-01-16T18:34:06.189Z,99527.66
2019-01-16T18:37:37.559Z,99529.88
2019-01-16T18:41:00.558Z,99519.38
2019-01-16T18:44:17.872Z,99533.19
2019-01-16T18:47:52.715Z,99512.38
2019-01-16T18:51:15.731Z,99506.37
2019-01-16T18:54:48.040Z,99493.74
2019-01-16T18:58:01.532Z,99492.97
2019-01-16T19:01:23.186Z,99489.42
2019-01-16T19:04:35.920Z,99517.38
2019-01-16T19:08:04.949Z,99487.77
2019-01-16T19:11:37.026Z,99465.01
2019-01-16T19:14:58.728Z,99486.02
2019-01-16T19:18:20.627Z,99476.55
2019-01-16T19:21:39.307Z,99480.64
2019-01-16T19:25:08.098Z,99488.88
2019-01-16T19:28:28.289Z,99483.44
2019-01-16T19:31:49.059Z,99494.75
2019-01-16T19:35:09.273Z,99467.06
2019-01-16T19:38:34.567Z,99495.39
2019-01-16T19:41:56.148Z,99465.17
2019-01-16T19:45:15.958Z,99456.47
2019-01-16T19:48:44.715Z,99499.34
2019-01-16T19:52:01.914Z,99466.94
2019-01-16T19:55:28.918Z,99431.55
2019-01-16T19:58:57.677Z,99439.76
2019-01-16T20:02:26.029Z,99442.59
2019-01-16T20:05:43.136Z,99438.44
2019-01-16T20:09:01.203Z,99426.19
2019-01-16T20:12:22.839Z,99433.91
2019-01-16T20:15:42.399Z,99422.81
2019-01-16T20:19:04.581Z,99420.52
2019-01-16T20:22:33.672Z,99412.11
2019-01-16T20:25:47.934Z,99405.94
2019-01-16T20:29:09.600Z,99408.20
2019-01-16T20:32:41.755Z,99400.59
2019-01-16T20:35:54.505Z,99396.31
2019-01-16T20:39:11.830Z,99393.05
2019-01-16T20:42:23.813Z,99389.39
2019-01-16T20:45:50.916Z,99404.98
2019-01-16T20:49:24.826Z,99375.02
2019-01-16T20:52:41.889Z,99365.61
2019-01-16T20:56:02.094Z,99371.68
2019-01-16T20:59:24.150Z,99364.19
2019-01-16T21:02:45.556Z,99361.56
2019-01-16T21:06:07.911Z,99359.47
2019-01-16T21:09:32.201Z,99352.95
2019-01-16T21:12:57.114Z,99334.28
2019-01-16T21:16:19.951Z,99365.28
2019-01-16T21:19:34.414Z,99349.81
2019-01-16T21:23:03.941Z,99339.59
2019-01-16T21:26:25.589Z,99362.88
2019-01-16T21:29:48.417Z,99339.53
2019-01-16T21:33:17.989Z,99338.13
2019-01-16T21:36:40.994Z,99337.70
2019-01-16T21:39:53.920Z,99330.32
2019-01-16T21:43:22.375Z,99314.63
2019-01-16T21:46:38.376Z,99316.96
2019-01-16T21:50:16.529Z,99315.20
2019-01-16T21:53:48.574Z,99306.54
2019-01-16T21:57:16.746Z,99310.14
2019-01-16T22:00:58.099Z,99315.69
2019-01-16T22:04:14.122Z,99319.49
2019-01-16T22:07:33.889Z,99311.30
2019-01-16T22:11:05.878Z,99292.98
2019-01-16T22:14:18.679Z,99291.73
2019-01-16T22:17:50.372Z,99293.44
2019-01-16T22:21:16.780Z,99304.92
2019-01-16T22:24:51.746Z,99293.77
2019-01-16T22:28:05.372Z,99279.14
2019-01-16T22:31:26.937Z,99291.36
2019-01-16T22:34:58.945Z,99282.66
2019-01-16T22:38:10.768Z,99284.91
2019-01-16T22:41:22.446Z,99320.81
2019-01-16T22:44:42.834Z,99322.42
2019-01-16T22:48:02.196Z,99299.86
2019-01-16T22:51:31.026Z,99295.00
2019-01-16T22:54:56.879Z,99291.72
2019-01-16T22:58:19.791Z,99298.95
2019-01-16T23:01:41.456Z,99289.61
2019-01-16T23:04:55.874Z,99279.45
2019-01-16T23:08:05.834Z,99267.36
2019-01-16T23:11:25.006Z,99265.63
2019-01-16T23:14:47.027Z,99266.55
2019-01-16T23:18:16.130Z,99265.39
2019-01-16T23:21:43.691Z,99262.46
2019-01-16T23:25:12.669Z,99270.09
2019-01-16T23:28:31.576Z,99266.03
2019-01-16T23:31:57.685Z,99273.83
2019-01-16T23:35:12.158Z,99279.97
2019-01-16T23:38:36.740Z,99270.70
2019-01-16T23:41:58.590Z,99265.98
2019-01-16T23:45:21.392Z,99271.46
2019-01-16T23:48:48.893Z,99268.67
2019-01-16T23:52:11.796Z,99272.17
2019-01-16T23:55:46.745Z,99270.41
2019-01-16T23:59:00.944Z,99252.48
